Time;durP1;ratioP1;P1;durP2;ratioP2;P2;SDS_P1;SDS_P2;PMS_P1;PMS_P2;Temp;Humidity;BMP_temperature;BMP_pressure;BME280_temperature;BME280_humidity;BME280_pressure;Samples;Min_cycle;Max_cycle;Signal;HPM_P1;HPM_P2
2022/03/19 00:01:05;;;;;;;4.78;2.65;;;;;;;-148.56;100.00;61375.16;4960176;28;20385;-34
2022/03/19 00:03:30;;;;;;;3.70;2.92;;;;;;;-148.56;100.00;61375.16;4960058;28;20631;-31
2022/03/19 00:05:55;;;;;;;4.13;3.05;;;;;;;-148.56;100.00;61375.16;4961326;28;20118;-33
2022/03/19 00:08:21;;;;;;;8.15;3.15;;;;;;;-148.56;100.00;61375.16;4958064;28;20030;-29
2022/03/19 00:10:47;;;;;;;3.80;2.90;;;;;;;-148.56;100.00;61375.16;4950904;28;20034;-33
2022/03/19 00:13:12;;;;;;;3.22;2.92;;;;;;;-148.56;100.00;61375.16;4960503;28;20404;-30
2022/03/19 00:15:38;;;;;;;5.60;4.00;;;;;;;-148.56;100.00;61375.16;4960448;28;20023;-31
2022/03/19 00:18:04;;;;;;;6.10;3.35;;;;;;;-148.56;100.00;61375.16;4960453;28;20027;-34
2022/03/19 00:20:31;;;;;;;3.22;2.92;;;;;;;-148.56;100.00;61375.16;4960180;28;20030;-29
2022/03/19 00:22:56;;;;;;;4.85;3.20;;;;;;;-148.56;100.00;61375.16;4961272;28;20652;-32
2022/03/19 00:25:21;;;;;;;3.17;2.80;;;;;;;-148.56;100.00;61375.16;4942089;28;20049;-33
2022/03/19 00:27:47;;;;;;;3.75;3.35;;;;;;;-148.56;100.00;61375.16;4959335;28;20065;-29
2022/03/19 00:30:12;;;;;;;4.35;3.60;;;;;;;-148.56;100.00;61375.16;4960994;28;20082;-33
2022/03/19 00:32:38;;;;;;;11.55;5.45;;;;;;;-148.56;100.00;61375.16;4960504;28;20035;-33
2022/03/19 00:35:04;;;;;;;5.47;4.00;;;;;;;-148.56;100.00;61375.16;4956434;28;20036;-29
2022/03/19 00:37:30;;;;;;;5.32;3.40;;;;;;;-148.56;100.00;61375.16;4962261;28;20547;-29
2022/03/19 00:39:55;;;;;;;7.20;3.53;;;;;;;-148.56;100.00;61375.16;4960589;28;20039;-31
2022/03/19 00:42:21;;;;;;;4.40;3.97;;;;;;;-148.56;100.00;61375.16;4930836;28;20224;-26
2022/03/19 00:44:47;;;;;;;5.50;4.00;;;;;;;-148.56;100.00;61375.16;4959337;28;20033;-34
2022/03/19 00:47:12;;;;;;;5.93;3.70;;;;;;;-148.56;100.00;61375.16;4959173;28;20042;-32
2022/03/19 00:49:38;;;;;;;4.40;3.60;;;;;;;-148.56;100.00;61375.16;4959626;28;20036;-31
2022/03/19 00:52:03;;;;;;;4.53;3.47;;;;;;;-148.56;100.00;61375.16;4961685;28;20038;-34
2022/03/19 00:54:29;;;;;;;7.78;3.60;;;;;;;-148.56;100.00;61375.16;4958010;28;20042;-31
2022/03/19 00:56:54;;;;;;;4.00;3.60;;;;;;;-148.56;100.00;61375.16;4963555;28;20081;-34
2022/03/19 00:59:20;;;;;;;4.03;3.40;;;;;;;-148.56;100.00;61375.16;4959904;28;20030;-30
2022/03/19 01:01:46;;;;;;;4.88;3.33;;;;;;;-148.56;100.00;61375.16;4957623;28;20053;-30
2022/03/19 01:04:11;;;;;;;4.65;3.30;;;;;;;-148.56;100.00;61375.16;4960276;28;20472;-32
2022/03/19 01:06:36;;;;;;;5.50;3.78;;;;;;;-148.56;100.00;61375.16;4960224;28;20041;-31
2022/03/19 01:09:02;;;;;;;6.07;3.58;;;;;;;-148.56;100.00;61375.16;4957842;28;20058;-32
2022/03/19 01:11:28;;;;;;;3.95;3.55;;;;;;;-148.56;100.00;61375.16;4957899;28;20568;-35
2022/03/19 01:13:54;;;;;;;3.85;3.30;;;;;;;-148.56;100.00;61375.16;4958669;28;20089;-30
2022/03/19 01:16:19;;;;;;;4.40;3.70;;;;;;;-148.56;100.00;61375.16;4959692;28;20046;-30
2022/03/19 01:18:48;;;;;;;3.53;3.03;;;;;;;-148.56;100.00;61375.16;4961589;28;20069;-33
2022/03/19 01:21:14;;;;;;;4.80;4.00;;;;;;;-148.56;100.00;61375.16;4960869;28;20035;-33
2022/03/19 01:23:40;;;;;;;4.60;3.00;;;;;;;-148.56;100.00;61375.16;4959582;28;21042;-34
2022/03/19 01:26:05;;;;;;;3.78;3.40;;;;;;;-148.56;100.00;61375.16;4956622;28;20022;-31
2022/03/19 01:28:31;;;;;;;4.68;3.70;;;;;;;-148.56;100.00;61375.16;4962582;28;20030;-31
2022/03/19 01:30:56;;;;;;;5.72;4.07;;;;;;;-148.56;100.00;61375.16;4966978;28;20026;-32
2022/03/19 01:33:22;;;;;;;4.35;3.60;;;;;;;-148.56;100.00;61375.16;4960908;28;20046;-35
2022/03/19 01:35:47;;;;;;;4.63;3.65;;;;;;;-148.56;100.00;61375.16;4966880;28;20041;-30
2022/03/19 01:38:12;;;;;;;4.75;3.58;;;;;;;-148.56;100.00;61375.16;4960378;28;20035;-31
2022/03/19 01:40:38;;;;;;;4.03;3.50;;;;;;;-148.56;100.00;61375.16;4963988;28;20089;-33
2022/03/19 01:43:03;;;;;;;6.15;3.42;;;;;;;-148.56;100.00;61375.16;4967000;28;20521;-32
2022/03/19 01:45:29;;;;;;;4.72;3.60;;;;;;;-148.56;100.00;61375.16;4969464;28;20034;-31
2022/03/19 01:47:55;;;;;;;4.50;3.63;;;;;;;-148.56;100.00;61375.16;4970276;28;20022;-31
2022/03/19 01:50:21;;;;;;;4.47;3.25;;;;;;;-148.56;100.00;61375.16;4970862;28;20050;-32
2022/03/19 01:52:47;;;;;;;3.53;3.10;;;;;;;-148.56;100.00;61375.16;4967174;28;20857;-32
2022/03/19 01:55:12;;;;;;;3.45;3.08;;;;;;;-148.56;100.00;61375.16;4969743;28;20034;-31
2022/03/19 01:57:41;;;;;;;5.45;3.35;;;;;;;-148.56;100.00;61375.16;4950363;28;20029;-32
2022/03/19 02:00:08;;;;;;;4.75;3.60;;;;;;;-148.56;100.00;61375.16;4971130;28;20022;-32
2022/03/19 02:02:34;;;;;;;4.13;3.20;;;;;;;-148.56;100.00;61375.16;4964425;28;20035;-33
2022/03/19 02:05:01;;;;;;;3.58;3.25;;;;;;;-148.56;100.00;61375.16;4968766;28;20386;-29
2022/03/19 02:07:27;;;;;;;3.83;3.38;;;;;;;-148.56;100.00;61375.16;4948564;28;20050;-32
2022/03/19 02:09:52;;;;;;;5.35;3.40;;;;;;;-148.56;100.00;61375.16;4966908;28;20039;-32
2022/03/19 02:12:18;;;;;;;4.00;3.10;;;;;;;-148.56;100.00;61375.16;4962487;28;20037;-29
2022/03/19 02:14:44;;;;;;;4.28;3.30;;;;;;;-148.56;100.00;61375.16;4957420;28;20034;-32
2022/03/19 02:17:09;;;;;;;3.90;3.05;;;;;;;-148.56;100.00;61375.16;4958684;28;20149;-30
2022/03/19 02:19:45;;;;;;;4.18;3.00;;;;;;;-148.56;100.00;61375.16;4961103;28;20128;-33
2022/03/19 02:22:10;;;;;;;3.50;3.20;;;;;;;-148.56;100.00;61375.16;4942377;28;20050;-31
2022/03/19 02:27:20;;;;;;;4.90;3.38;;;;;;;-148.56;100.00;61375.16;4956200;28;20652;-31
2022/03/19 02:29:45;;;;;;;4.78;3.30;;;;;;;-148.56;100.00;61375.16;4958055;28;20042;-34
2022/03/19 02:32:10;;;;;;;4.68;3.30;;;;;;;-148.56;100.00;61375.16;4956683;28;20169;-31
2022/03/19 02:34:36;;;;;;;4.03;3.20;;;;;;;-148.56;100.00;61375.16;4955613;28;20035;-34
2022/03/19 02:37:01;;;;;;;4.03;3.08;;;;;;;-148.56;100.00;61375.16;4958377;28;20022;-31
2022/03/19 02:39:30;;;;;;;5.03;3.22;;;;;;;-148.56;100.00;61375.16;4959356;28;20425;-34
2022/03/19 02:41:56;;;;;;;5.20;3.40;;;;;;;-148.56;100.00;61375.16;4963733;28;20165;-33
2022/03/19 02:44:22;;;;;;;3.35;2.90;;;;;;;-148.56;100.00;61375.16;4960813;28;20178;-31
2022/03/19 02:46:48;;;;;;;3.22;2.92;;;;;;;-148.56;100.00;61375.16;4961243;28;20038;-33
2022/03/19 02:49:17;;;;;;;4.45;3.00;;;;;;;-148.56;100.00;61375.16;4962624;28;20043;-31
2022/03/19 02:51:43;;;;;;;3.45;3.10;;;;;;;-148.56;100.00;61375.16;4963335;28;20035;-30
2022/03/19 02:54:11;;;;;;;4.95;3.15;;;;;;;-148.56;100.00;61375.16;4960593;28;20030;-31
2022/03/19 02:56:38;;;;;;;3.50;3.08;;;;;;;-148.56;100.00;61375.16;4961922;28;20031;-35
2022/03/19 02:59:20;;;;;;;3.90;3.17;;;;;;;-148.56;100.00;61375.16;4961911;28;20068;-37
2022/03/19 03:01:56;;;;;;;4.45;2.80;;;;;;;-148.56;100.00;61375.16;4961935;28;20038;-32
2022/03/19 03:04:23;;;;;;;3.80;3.17;;;;;;;-148.56;100.00;61375.16;4961941;28;20030;-34
2022/03/19 03:06:49;;;;;;;3.78;3.20;;;;;;;-148.56;100.00;61375.16;4966697;28;20027;-32
2022/03/19 03:09:20;;;;;;;4.82;3.15;;;;;;;-148.56;100.00;61375.16;4961238;28;20026;-29
2022/03/19 03:11:45;;;;;;;3.55;2.85;;;;;;;-148.56;100.00;61375.16;4942971;28;20197;-32
2022/03/19 03:14:11;;;;;;;3.70;3.00;;;;;;;-148.56;100.00;61375.16;4962164;28;20038;-34
2022/03/19 03:16:37;;;;;;;4.28;3.30;;;;;;;-148.56;100.00;61375.16;4962156;28;20037;-31
2022/03/19 03:19:04;;;;;;;4.30;3.42;;;;;;;-148.56;100.00;61375.16;4961515;28;20042;-31
2022/03/19 03:21:29;;;;;;;4.10;3.28;;;;;;;-148.56;100.00;61375.16;4960393;28;20034;-33
2022/03/19 03:23:55;;;;;;;3.50;3.00;;;;;;;-148.56;100.00;61375.16;4942167;28;20550;-28
2022/03/19 03:26:21;;;;;;;3.30;3.00;;;;;;;-148.56;100.00;61375.16;4962409;28;20481;-35
2022/03/19 03:28:46;;;;;;;3.40;3.03;;;;;;;-148.56;100.00;61375.16;4964891;28;20113;-32
2022/03/19 03:31:11;;;;;;;4.47;3.47;;;;;;;-148.56;100.00;61375.16;4966740;28;20034;-35
2022/03/19 03:33:37;;;;;;;4.53;3.22;;;;;;;-148.56;100.00;61375.16;4966674;28;20242;-33
2022/03/19 03:36:02;;;;;;;3.47;2.95;;;;;;;-148.56;100.00;61375.16;4962135;28;20053;-34
2022/03/19 03:38:28;;;;;;;3.85;3.10;;;;;;;-148.56;100.00;61375.16;4962295;28;20035;-30
2022/03/19 03:40:53;;;;;;;15.70;7.30;;;;;;;-148.56;100.00;61375.16;4958971;28;20171;-32
2022/03/19 03:43:19;;;;;;;5.65;4.30;;;;;;;-148.56;100.00;61375.16;4958308;28;20041;-31
2022/03/19 03:45:44;;;;;;;4.97;3.75;;;;;;;-148.56;100.00;61375.16;4960579;28;20030;-32
2022/03/19 03:48:10;;;;;;;6.78;3.70;;;;;;;-148.56;100.00;61375.16;4960775;28;20455;-34
2022/03/19 03:50:36;;;;;;;5.40;3.63;;;;;;;-148.56;100.00;61375.16;4960324;28;20489;-33
2022/03/19 03:53:04;;;;;;;5.97;3.63;;;;;;;-148.56;100.00;61375.16;4930704;28;20050;-32
2022/03/19 03:55:29;;;;;;;4.32;3.35;;;;;;;-148.56;100.00;61375.16;4960330;28;20492;-31
2022/03/19 03:57:55;;;;;;;3.90;3.50;;;;;;;-148.56;100.00;61375.16;4962432;28;20045;-30
2022/03/19 04:00:20;;;;;;;5.30;3.45;;;;;;;-148.56;100.00;61375.16;4958455;28;20027;-36
2022/03/19 04:02:45;;;;;;;4.50;3.55;;;;;;;-148.56;100.00;61375.16;4961597;28;20046;-31
2022/03/19 04:05:11;;;;;;;3.78;3.22;;;;;;;-148.56;100.00;61375.16;4962535;28;20888;-31
2022/03/19 04:07:36;;;;;;;5.25;3.55;;;;;;;-148.56;100.00;61375.16;4960069;28;20396;-35
2022/03/19 04:10:02;;;;;;;5.75;3.63;;;;;;;-148.56;100.00;61375.16;4959952;28;20046;-29
2022/03/19 04:12:27;;;;;;;12.48;3.97;;;;;;;-148.56;100.00;61375.16;4962094;28;20058;-34
2022/03/19 04:14:53;;;;;;;4.55;3.30;;;;;;;-148.56;100.00;61375.16;4959913;28;20058;-32
2022/03/19 04:17:18;;;;;;;3.85;3.45;;;;;;;-148.56;100.00;61375.16;4960298;28;20030;-31
2022/03/19 04:19:44;;;;;;;4.03;3.40;;;;;;;-148.56;100.00;61375.16;4964260;28;20097;-32
2022/03/19 04:22:10;;;;;;;4.15;3.20;;;;;;;-148.56;100.00;61375.16;4959948;28;20068;-32
2022/03/19 04:24:35;;;;;;;4.85;3.22;;;;;;;-148.56;100.00;61375.16;4949315;28;20038;-32
2022/03/19 04:27:01;;;;;;;4.50;3.55;;;;;;;-148.56;100.00;61375.16;4960939;28;20125;-37
2022/03/19 04:29:26;;;;;;;3.88;3.47;;;;;;;-148.56;100.00;61375.16;4962168;28;20053;-32
2022/03/19 04:31:52;;;;;;;3.70;3.28;;;;;;;-148.56;100.00;61375.16;4961550;28;20041;-30
2022/03/19 04:34:17;;;;;;;4.28;3.53;;;;;;;-148.56;100.00;61375.16;4958131;28;20384;-35
2022/03/19 04:36:43;;;;;;;4.07;3.20;;;;;;;-148.56;100.00;61375.16;4960510;28;20528;-32
2022/03/19 04:39:08;;;;;;;5.75;3.45;;;;;;;-148.56;100.00;61375.16;4959194;28;20082;-34
2022/03/19 04:41:34;;;;;;;4.25;3.53;;;;;;;-148.56;100.00;61375.16;4958913;28;20041;-29
2022/03/19 04:44:00;;;;;;;4.70;3.30;;;;;;;-148.56;100.00;61375.16;4961068;28;20026;-33
2022/03/19 04:46:26;;;;;;;6.75;3.35;;;;;;;-148.56;100.00;61375.16;4951061;28;20106;-35
2022/03/19 04:48:52;;;;;;;4.18;3.35;;;;;;;-148.56;100.00;61375.16;4958669;28;20655;-31
2022/03/19 04:51:18;;;;;;;4.88;3.42;;;;;;;-148.56;100.00;61375.16;4959961;28;20046;-29
2022/03/19 04:53:50;;;;;;;4.63;3.55;;;;;;;-148.56;100.00;61375.16;4942400;28;20034;-40
2022/03/19 04:56:20;;;;;;;4.05;3.50;;;;;;;-148.56;100.00;61375.16;4958632;28;20026;-35
2022/03/19 04:58:45;;;;;;;3.88;3.28;;;;;;;-148.56;100.00;61375.16;4959529;28;20026;-30
2022/03/19 05:01:11;;;;;;;4.22;3.10;;;;;;;-148.56;100.00;61375.16;4960532;28;20030;-32
2022/03/19 05:03:36;;;;;;;6.20;3.60;;;;;;;-148.56;100.00;61375.16;4943722;28;20030;-32
2022/03/19 05:06:02;;;;;;;3.90;3.10;;;;;;;-148.56;100.00;61375.16;4966490;28;20057;-33
2022/03/19 05:08:27;;;;;;;3.83;3.30;;;;;;;-148.56;100.00;61375.16;4961806;28;20033;-34
2022/03/19 05:13:37;;;;;;;3.67;3.38;;;;;;;-148.56;100.00;61375.16;4958512;28;20057;-31
2022/03/19 05:16:02;;;;;;;5.40;3.70;;;;;;;-148.56;100.00;61375.16;4962796;28;20027;-35
2022/03/19 05:18:27;;;;;;;6.55;3.60;;;;;;;-148.56;100.00;61375.16;4970856;28;20113;-30
2022/03/19 05:20:53;;;;;;;5.28;3.50;;;;;;;-148.56;100.00;61375.16;4970420;28;20037;-34
2022/03/19 05:23:18;;;;;;;3.45;3.15;;;;;;;-148.56;100.00;61375.16;4967587;28;20026;-31
2022/03/19 05:25:44;;;;;;;5.15;3.22;;;;;;;-148.56;100.00;61375.16;4971056;28;20886;-35
2022/03/19 05:28:09;;;;;;;3.75;3.35;;;;;;;-148.56;100.00;61375.16;4969215;28;20027;-33
2022/03/19 05:30:35;;;;;;;5.35;3.60;;;;;;;-148.56;100.00;61375.16;4967431;28;20089;-34
2022/03/19 05:33:00;;;;;;;3.97;3.30;;;;;;;-148.56;100.00;61375.16;4951280;28;20543;-32
2022/03/19 05:35:26;;;;;;;4.63;3.30;;;;;;;-148.56;100.00;61375.16;4969070;28;20034;-31
2022/03/19 05:37:51;;;;;;;3.67;3.28;;;;;;;-148.56;100.00;61375.16;4968761;28;20030;-34
2022/03/19 05:40:17;;;;;;;3.83;3.30;;;;;;;-148.56;100.00;61375.16;4950902;28;20033;-33
2022/03/19 05:42:42;;;;;;;4.03;3.10;;;;;;;-148.56;100.00;61375.16;4967107;28;20032;-32
2022/03/19 05:45:10;;;;;;;3.85;3.03;;;;;;;-148.56;100.00;61375.16;4969394;28;20031;-31
2022/03/19 05:47:40;;;;;;;3.10;2.80;;;;;;;-148.56;100.00;61375.16;4960242;28;20508;-35
2022/03/19 05:50:06;;;;;;;4.47;3.17;;;;;;;-148.56;100.00;61375.16;4958823;28;20038;-34
2022/03/19 05:52:32;;;;;;;3.53;3.20;;;;;;;-148.56;100.00;61375.16;4960388;28;20541;-29
2022/03/19 05:54:57;;;;;;;3.28;2.90;;;;;;;-148.56;100.00;61375.16;4959318;28;20031;-26
2022/03/19 05:57:23;;;;;;;3.75;3.10;;;;;;;-148.56;100.00;61375.16;4957688;28;20113;-33
2022/03/19 05:59:48;;;;;;;3.55;3.10;;;;;;;-148.56;100.00;61375.16;4958049;28;20030;-32
2022/03/19 06:02:13;;;;;;;4.05;3.20;;;;;;;-148.56;100.00;61375.16;4960739;28;20030;-32
2022/03/19 06:04:39;;;;;;;3.55;2.97;;;;;;;-148.56;100.00;61375.16;4959654;28;20023;-31
2022/03/19 06:07:04;;;;;;;3.17;2.88;;;;;;;-148.56;100.00;61375.16;4958408;28;20657;-27
2022/03/19 06:09:30;;;;;;;4.03;3.08;;;;;;;-148.56;100.00;61375.16;4958039;28;20125;-31
2022/03/19 06:11:55;;;;;;;4.00;3.08;;;;;;;-148.56;100.00;61375.16;4958906;28;20384;-30
2022/03/19 06:14:21;;;;;;;5.55;3.00;;;;;;;-148.56;100.00;61375.16;4956355;28;20623;-35
2022/03/19 06:16:46;;;;;;;3.80;3.03;;;;;;;-148.56;100.00;61375.16;4963889;28;20080;-33
2022/03/19 06:19:11;;;;;;;4.15;3.17;;;;;;;-148.56;100.00;61375.16;4960117;28;20027;-36
2022/03/19 06:21:40;;;;;;;3.65;3.10;;;;;;;-148.56;100.00;61375.16;4961119;28;20042;-29
2022/03/19 06:24:07;;;;;;;3.92;2.90;;;;;;;-148.56;100.00;61375.16;4971722;28;20492;-29
2022/03/19 06:26:33;;;;;;;3.50;3.03;;;;;;;-148.56;100.00;61375.16;4974269;28;20045;-32
2022/03/19 06:28:58;;;;;;;4.72;3.30;;;;;;;-148.56;100.00;61375.16;4968390;28;20034;-32
2022/03/19 06:31:24;;;;;;;6.45;3.03;;;;;;;-148.56;100.00;61375.16;4971956;28;20109;-31
2022/03/19 06:33:49;;;;;;;3.42;3.00;;;;;;;-148.56;100.00;61375.16;4972665;28;20026;-32
2022/03/19 06:38:59;;;;;;;4.00;3.30;;;;;;;-148.56;100.00;61375.16;4959260;28;20464;-33
2022/03/19 06:41:25;;;;;;;4.25;3.15;;;;;;;-148.56;100.00;61375.16;4961714;28;20027;-33
2022/03/19 06:43:50;;;;;;;4.32;3.00;;;;;;;-148.56;100.00;61375.16;4963050;28;20062;-35
2022/03/19 06:46:16;;;;;;;3.30;2.90;;;;;;;-148.56;100.00;61375.16;4961801;28;20081;-33
2022/03/19 06:48:41;;;;;;;3.72;2.90;;;;;;;-148.56;100.00;61375.16;4962893;28;20096;-32
2022/03/19 06:51:07;;;;;;;4.45;3.28;;;;;;;-148.56;100.00;61375.16;4963791;28;20413;-32
2022/03/19 06:53:32;;;;;;;5.78;3.10;;;;;;;-148.56;100.00;61375.16;4961617;28;20026;-35
2022/03/19 06:55:58;;;;;;;5.38;3.33;;;;;;;-148.56;100.00;61375.16;4962626;28;20101;-28
2022/03/19 06:58:23;;;;;;;4.82;3.60;;;;;;;-148.56;100.00;61375.16;4961267;28;20061;-33
2022/03/19 07:00:49;;;;;;;3.72;3.30;;;;;;;-148.56;100.00;61375.16;4962734;28;20472;-33
2022/03/19 07:03:15;;;;;;;4.75;3.60;;;;;;;-148.56;100.00;61375.16;4960194;28;22355;-30
2022/03/19 07:05:40;;;;;;;7.00;3.80;;;;;;;-148.56;100.00;61375.16;4960966;28;20034;-30
2022/03/19 07:08:08;;;;;;;5.82;3.95;;;;;;;-148.56;100.00;61375.16;4963607;28;20034;-33
2022/03/19 07:10:34;;;;;;;7.35;4.38;;;;;;;-148.56;100.00;61375.16;4964232;28;20542;-38
2022/03/19 07:13:00;;;;;;;6.90;3.78;;;;;;;-148.56;100.00;61375.16;4959542;28;20421;-37
2022/03/19 07:15:28;;;;;;;6.07;3.78;;;;;;;-148.56;100.00;61375.16;4960299;28;20065;-31
2022/03/19 07:17:58;;;;;;;7.53;3.75;;;;;;;-148.56;100.00;61375.16;4961131;28;20030;-37
2022/03/19 07:20:23;;;;;;;6.38;3.50;;;;;;;-148.56;100.00;61375.16;4961068;28;20085;-35
2022/03/19 07:22:58;;;;;;;5.03;3.30;;;;;;;-148.56;100.00;61375.16;4956607;28;20710;-38
2022/03/19 07:25:27;;;;;;;5.20;3.45;;;;;;;-148.56;100.00;61375.16;4959301;28;20724;-36
2022/03/19 07:27:53;;;;;;;7.88;3.47;;;;;;;-148.56;100.00;61375.16;4961875;28;20034;-39
2022/03/19 07:30:19;;;;;;;5.68;3.58;;;;;;;-148.56;100.00;61375.16;4962744;28;20890;-34
2022/03/19 07:32:44;;;;;;;8.77;3.50;;;;;;;-148.56;100.00;61375.16;4952154;28;20035;-37
2022/03/19 07:35:10;;;;;;;10.52;6.38;;;;;;;-148.56;100.00;61375.16;4961166;28;20797;-35
2022/03/19 07:37:37;;;;;;;9.13;4.38;;;;;;;-148.56;100.00;61375.16;4963352;28;20392;-36
2022/03/19 07:40:03;;;;;;;11.43;4.82;;;;;;;-148.56;100.00;61375.16;4957989;28;20030;-34
2022/03/19 07:42:29;;;;;;;7.35;3.80;;;;;;;-148.56;100.00;61375.16;4960450;28;20098;-38
2022/03/19 07:44:54;;;;;;;8.65;4.50;;;;;;;-148.56;100.00;61375.16;4958213;28;20540;-36
2022/03/19 07:47:20;;;;;;;8.77;4.72;;;;;;;-148.56;100.00;61375.16;4961230;28;20031;-37
2022/03/19 07:49:45;;;;;;;7.25;4.55;;;;;;;-148.56;100.00;61375.16;4961428;28;20488;-37
2022/03/19 07:52:11;;;;;;;9.13;5.72;;;;;;;-148.56;100.00;61375.16;4958120;28;22100;-38
2022/03/19 07:54:37;;;;;;;11.73;5.32;;;;;;;-148.56;100.00;61375.16;4944139;28;20057;-34
2022/03/19 07:57:03;;;;;;;11.85;6.18;;;;;;;-148.56;100.00;61375.16;4962068;28;20058;-31
2022/03/19 07:59:29;;;;;;;12.23;5.75;;;;;;;-148.56;100.00;61375.16;4960769;28;20022;-31
2022/03/19 08:01:54;;;;;;;9.10;5.85;;;;;;;-148.56;100.00;61375.16;4961150;28;20684;-34
2022/03/19 08:04:20;;;;;;;8.18;5.60;;;;;;;-148.56;100.00;61375.16;4960623;28;20039;-34
2022/03/19 08:06:45;;;;;;;10.27;6.10;;;;;;;-148.56;100.00;61375.16;4962424;28;20055;-34
2022/03/19 08:09:10;;;;;;;10.95;5.88;;;;;;;-148.56;100.00;61375.16;4962050;28;20031;-36
2022/03/19 08:11:36;;;;;;;12.50;5.82;;;;;;;-148.56;100.00;61375.16;4959931;28;20390;-34
2022/03/19 08:14:03;;;;;;;11.55;6.28;;;;;;;-148.56;100.00;61375.16;4958417;28;20035;-30
2022/03/19 08:16:28;;;;;;;9.20;5.50;;;;;;;-148.56;100.00;61375.16;4960581;28;20032;-36
2022/03/19 08:18:53;;;;;;;11.38;7.82;;;;;;;-148.56;100.00;61375.16;4949344;28;20030;-33
2022/03/19 08:21:19;;;;;;;10.32;6.85;;;;;;;-148.56;100.00;61375.16;4926275;28;20038;-33
2022/03/19 08:23:46;;;;;;;12.73;7.70;;;;;;;-148.56;100.00;61375.16;4945318;28;20030;-30
2022/03/19 08:26:11;;;;;;;11.75;8.05;;;;;;;-148.56;100.00;61375.16;4943169;28;20084;-37
2022/03/19 08:28:37;;;;;;;11.02;7.50;;;;;;;-148.56;100.00;61375.16;4947319;28;20034;-38
2022/03/19 08:31:02;;;;;;;11.25;6.88;;;;;;;-148.56;100.00;61375.16;4939871;28;20057;-35
2022/03/19 08:33:28;;;;;;;9.40;5.97;;;;;;;-148.56;100.00;61375.16;4943050;28;20053;-34
2022/03/19 08:35:53;;;;;;;10.48;7.00;;;;;;;-148.56;100.00;61375.16;4947743;28;21133;-35
2022/03/19 08:41:03;;;;;;;8.43;5.93;;;;;;;-148.56;100.00;61375.16;4958325;28;20037;-27
2022/03/19 08:43:29;;;;;;;9.07;5.82;;;;;;;-148.56;100.00;61375.16;4961892;28;20050;-37
2022/03/19 08:45:54;;;;;;;10.68;6.32;;;;;;;-148.56;100.00;61375.16;4970050;28;20480;-33
2022/03/19 08:48:20;;;;;;;9.48;5.95;;;;;;;-148.56;100.00;61375.16;4969469;28;20569;-33
2022/03/19 08:50:46;;;;;;;9.35;5.70;;;;;;;-148.56;100.00;61375.16;4970613;28;20027;-35
2022/03/19 08:53:13;;;;;;;10.02;5.80;;;;;;;-148.56;100.00;61375.16;4970308;28;20104;-37
2022/03/19 08:55:38;;;;;;;8.93;5.95;;;;;;;-148.56;100.00;61375.16;4971641;28;20030;-33
2022/03/19 08:58:04;;;;;;;11.07;5.65;;;;;;;-148.56;100.00;61375.16;4966643;28;20477;-36
2022/03/19 09:00:29;;;;;;;9.20;5.72;;;;;;;-148.56;100.00;61375.16;4969936;28;20144;-34
2022/03/19 09:02:55;;;;;;;9.80;5.75;;;;;;;-148.56;100.00;61375.16;4969818;28;20679;-35
2022/03/19 09:05:21;;;;;;;23.65;18.20;;;;;;;-148.56;100.00;61375.16;4968165;28;20027;-31
2022/03/19 09:07:46;;;;;;;24.63;19.90;;;;;;;-148.56;100.00;61375.16;4967172;28;20078;-31
2022/03/19 09:10:12;;;;;;;24.85;19.25;;;;;;;-148.56;100.00;61375.16;4969365;28;20030;-36
2022/03/19 09:12:37;;;;;;;25.45;19.70;;;;;;;-148.56;100.00;61375.16;4967136;28;20039;-35
2022/03/19 09:15:03;;;;;;;23.45;17.50;;;;;;;-148.56;100.00;61375.16;4947083;28;20390;-28
2022/03/19 09:17:29;;;;;;;23.05;16.85;;;;;;;-148.56;100.00;61375.16;4960222;28;20034;-35
2022/03/19 09:19:54;;;;;;;21.23;14.73;;;;;;;-148.56;100.00;61375.16;4958699;28;20438;-35
2022/03/19 09:22:20;;;;;;;18.50;14.43;;;;;;;-148.56;100.00;61375.16;4954851;28;20038;-34
2022/03/19 09:24:45;;;;;;;21.95;14.55;;;;;;;-148.56;100.00;61375.16;4959022;28;20592;-33
2022/03/19 09:27:11;;;;;;;18.17;14.60;;;;;;;-148.56;100.00;61375.16;4958123;28;20034;-29
2022/03/19 09:29:36;;;;;;;19.92;14.23;;;;;;;-148.56;100.00;61375.16;4964162;28;20052;-32
2022/03/19 09:32:01;;;;;;;16.65;12.95;;;;;;;-148.56;100.00;61375.16;4963776;28;20026;-32
2022/03/19 09:34:27;;;;;;;21.08;13.85;;;;;;;-148.56;100.00;61375.16;4964709;28;20058;-38
2022/03/19 09:36:52;;;;;;;19.13;15.23;;;;;;;-148.56;100.00;61375.16;4934233;28;20039;-32
2022/03/19 09:39:18;;;;;;;19.80;13.35;;;;;;;-148.56;100.00;61375.16;4954143;28;20030;-37
2022/03/19 09:41:43;;;;;;;23.30;13.93;;;;;;;-148.56;100.00;61375.16;4959571;28;20023;-33
2022/03/19 09:44:11;;;;;;;16.77;13.27;;;;;;;-148.56;100.00;61375.16;4957964;28;20026;-30
2022/03/19 09:46:37;;;;;;;18.55;12.77;;;;;;;-148.56;100.00;61375.16;4957246;28;20145;-38
2022/03/19 09:49:03;;;;;;;16.70;13.98;;;;;;;-148.56;100.00;61375.16;4922462;28;20463;-35
2022/03/19 09:51:28;;;;;;;20.38;13.73;;;;;;;-148.56;100.00;61375.16;4922235;28;20583;-33
2022/03/19 09:53:54;;;;;;;15.93;11.20;;;;;;;-148.56;100.00;61375.16;4887518;28;20042;-37
2022/03/19 09:56:20;;;;;;;18.30;11.35;;;;;;;-148.56;100.00;61375.16;4923569;28;20031;-33
2022/03/19 09:58:45;;;;;;;17.13;11.65;;;;;;;-148.56;100.00;61375.16;4928694;28;20073;-30
2022/03/19 10:01:11;;;;;;;17.58;10.95;;;;;;;-148.56;100.00;61375.16;4922716;28;20846;-29
2022/03/19 10:03:40;;;;;;;16.25;10.43;;;;;;;-148.56;100.00;61375.16;4918117;28;20117;-33
2022/03/19 10:08:59;;;;;;;16.27;9.50;;;;;;;-148.56;100.00;61375.16;4919575;28;20081;-32
2022/03/19 10:11:30;;;;;;;15.07;10.23;;;;;;;-148.56;100.00;61375.16;4921229;28;20026;-31
2022/03/19 10:13:56;;;;;;;15.82;9.38;;;;;;;-148.56;100.00;61375.16;4920885;28;20081;-31
2022/03/19 10:16:24;;;;;;;17.92;9.57;;;;;;;-148.56;100.00;61375.16;4918247;28;20041;-31
2022/03/19 10:19:00;;;;;;;15.05;9.13;;;;;;;-148.56;100.00;61375.16;4918744;28;20125;-33
2022/03/19 10:21:26;;;;;;;18.17;9.43;;;;;;;-148.56;100.00;61375.16;4921726;28;20129;-34
2022/03/19 10:23:52;;;;;;;12.07;8.77;;;;;;;-148.56;100.00;61375.16;4925229;28;20104;-38
2022/03/19 10:26:30;;;;;;;18.33;9.65;;;;;;;-148.56;100.00;61375.16;4923474;28;20038;-31
2022/03/19 10:29:06;;;;;;;12.63;7.95;;;;;;;-148.56;100.00;61375.16;4919699;28;20030;-28
2022/03/19 10:31:38;;;;;;;15.30;8.45;;;;;;;-148.56;100.00;61375.16;4905897;28;20113;-33
2022/03/19 10:34:05;;;;;;;16.65;8.52;;;;;;;-148.56;100.00;61375.16;4921942;28;20042;-33
2022/03/19 10:36:44;;;;;;;14.93;8.88;;;;;;;-148.56;100.00;61375.16;4955478;28;20511;-38
2022/03/19 10:39:12;;;;;;;17.00;8.90;;;;;;;-148.56;100.00;61375.16;4966840;28;20109;-32
2022/03/19 10:41:37;;;;;;;14.23;8.35;;;;;;;-148.56;100.00;61375.16;4968951;28;20065;-38
2022/03/19 10:44:29;;;;;;;15.70;7.82;;;;;;;-148.56;100.00;61375.16;4964725;28;20123;-37
2022/03/19 10:46:57;;;;;;;15.07;8.57;;;;;;;-148.56;100.00;61375.16;4964110;28;20628;-34
2022/03/19 10:49:31;;;;;;;13.77;8.25;;;;;;;-148.56;100.00;61375.16;4968619;28;20825;-40
2022/03/19 10:51:58;;;;;;;15.02;8.25;;;;;;;-148.56;100.00;61375.16;4952398;28;20057;-38
2022/03/19 10:54:23;;;;;;;17.90;8.10;;;;;;;-148.56;100.00;61375.16;4964693;28;20057;-37
2022/03/19 10:56:50;;;;;;;17.88;8.18;;;;;;;-148.56;100.00;61375.16;4966103;28;20889;-35
2022/03/19 10:59:15;;;;;;;15.10;8.02;;;;;;;-148.56;100.00;61375.16;4967685;28;20022;-35
2022/03/19 11:01:41;;;;;;;11.77;7.20;;;;;;;-148.56;100.00;61375.16;4971659;28;20037;-33
2022/03/19 11:04:08;;;;;;;10.95;7.32;;;;;;;-148.56;100.00;61375.16;4965432;28;20093;-34
2022/03/19 11:06:44;;;;;;;16.52;7.75;;;;;;;-148.56;100.00;61375.16;4970758;28;20696;-35
2022/03/19 11:09:10;;;;;;;12.90;7.85;;;;;;;-148.56;100.00;61375.16;4970998;28;20493;-36
2022/03/19 11:11:52;;;;;;;14.23;7.50;;;;;;;-148.56;100.00;61375.16;4972890;28;20031;-33
2022/03/19 11:14:24;;;;;;;14.13;8.10;;;;;;;-148.56;100.00;61375.16;4954207;28;20489;-34
2022/03/19 11:17:23;;;;;;;;;;;;;;;-148.56;100.00;61375.16;4970076;28;20030;-34